Weber Basin Water
2837 E Hwy 193, Layton
Last Weather Update:10/30/2011 11:00:00 PM
Date
ETo
ETc
Rain
Irrigation
Req
Temp
Max
Temp
Min
Temp
Avg
Avg RH
Avg Wind
Avg Solar
inches
inches
incehs
inches
F
F
F
%
%
watts/m2
9/1/2011 0.19" 0.13" 0.00" 0.13" 82.0° 56.6° 69.2° 32.9% 2.1 MPH 280.0w/m2
9/2/2011 0.18" 0.13" 0.00" 0.13" 78.0° 52.2° 65.9° 32.1% 2.2 MPH 278.1w/m2
9/3/2011 0.19" 0.13" 0.00" 0.13" 81.7° 50.1° 67.1° 25.1% 2.4 MPH 281.9w/m2
9/4/2011 0.19" 0.13" 0.00" 0.13" 84.5° 53.9° 70.2° 24.8% 2.2 MPH 278.4w/m2
9/5/2011 0.14" 0.09" 0.00" 0.09" 82.1° 62.4° 70.0° 28.5% 2.6 MPH 160.7w/m2
9/6/2011 0.16" 0.11" 0.01" 0.10" 77.5° 60.5° 68.6° 41.0% 4.6 MPH 190.4w/m2
9/7/2011 0.22" 0.15" 0.00" 0.15" 80.2° 57.5° 71.2° 32.5% 6.1 MPH 251.1w/m2
9/8/2011 0.27" 0.18" 0.00" 0.18" 81.2° 65.5° 73.3° 25.5% 10.0 MPH 258.2w/m2
9/9/2011 0.23" 0.15" 0.00" 0.15" 83.3° 62.7° 72.9° 23.2% 7.0 MPH 229.8w/m2
9/10/2011 0.17" 0.11" 0.00" 0.11" 81.5° 57.8° 69.1° 29.3% 3.1 MPH 219.1w/m2
9/11/2011 0.13" 0.09" 0.00" 0.09" 78.7° 55.8° 66.2° 42.5% 2.0 MPH 191.7w/m2
9/12/2011 0.16" 0.10" 0.00" 0.10" 77.7° 54.6° 65.3° 44.0% 2.1 MPH 233.7w/m2
9/13/2011 0.17" 0.11" 0.00" 0.11" 79.2° 54.0° 66.8° 36.9% 2.3 MPH 250.1w/m2
9/14/2011 0.17" 0.11" 0.00" 0.11" 79.9° 54.6° 66.6° 37.5% 2.8 MPH 233.4w/m2
9/15/2011 0.16" 0.10" 0.00" 0.10" 77.9° 54.6° 66.3° 41.8% 2.5 MPH 240.2w/m2
9/16/2011 0.09" 0.06" 0.09" -0.03" 70.0° 53.8° 60.7° 59.9% 2.5 MPH 132.1w/m2
9/17/2011 0.11" 0.07" 1.19" -1.12" 69.5° 50.8° 58.5° 63.1% 2.4 MPH 172.8w/m2
9/18/2011 0.15" 0.10" 0.00" 0.10" 75.2° 47.9° 61.0° 44.3% 1.7 MPH 242.5w/m2
9/19/2011 0.16" 0.10" 0.00" 0.10" 79.3° 51.2° 64.7° 34.9% 2.2 MPH 238.1w/m2
9/20/2011 0.15" 0.09" 0.00" 0.09" 74.9° 50.2° 63.2° 36.9% 2.0 MPH 234.8w/m2
9/21/2011 0.15" 0.09" 0.00" 0.09" 77.0° 50.5° 63.1° 39.7% 1.9 MPH 237.4w/m2
9/22/2011 0.15" 0.09" 0.00" 0.09" 79.7° 51.1° 64.5° 34.4% 2.0 MPH 229.4w/m2
9/23/2011 0.15" 0.10" 0.00" 0.10" 82.5° 51.9° 66.4° 27.3% 2.1 MPH 230.8w/m2
9/24/2011 0.14" 0.09" 0.00" 0.09" 81.9° 52.2° 66.7° 25.9% 2.0 MPH 206.9w/m2
9/25/2011 0.15" 0.09" 0.00" 0.09" 82.5° 51.6° 67.5° 26.6% 2.1 MPH 224.9w/m2
9/26/2011 0.14" 0.09" 0.00" 0.09" 79.7° 55.8° 67.1° 34.8% 2.2 MPH 217.3w/m2
9/27/2011 0.14" 0.09" 0.00" 0.09" 82.7° 52.1° 66.5° 35.0% 1.9 MPH 221.4w/m2
9/28/2011 0.14" 0.09" 0.00" 0.09" 83.9° 53.6° 67.8° 33.6% 1.9 MPH 218.5w/m2
9/29/2011 0.14" 0.09" 0.00" 0.09" 84.5° 54.3° 68.6° 34.0% 1.7 MPH 215.1w/m2
9/30/2011 0.14" 0.09" 0.00" 0.09" 87.9° 56.1° 70.7° 28.1% 1.8 MPH 211.9w/m2
Totals: 4.84" 3.15" 1.29" 1.86" 87.9° 47.9° 66.9° 35.2% 2.8 MPH 227.0w/m2